首页
METAR-TAF:

METAR-TAF

机场 :

Leeming, 英格兰

纬度: 54-18N, 经度: 001-32W, 海拔: 40米

当前天气观测

该预报发布于41分钟前的07:50 UTC
风速2节,风向
温度 16°C
湿度 72%
气压 1016 hPa
能见度10公里或以上

METAR: EGXE 190750Z AUTO 09002KT 9999 FEW013/// 16/11 Q1016

时间: 09:31 (08:31 UTC)

预报

该预报发布于21小时和34分钟前的10:57 UTC
预报有效从18日的 12点(UTC)到 18日的 17点(UTC)
风速10节,风向东北
能见度10公里或以上
多云层高于4800英尺

TAF: EGXE 181057Z 1812/1817 04010KT 9999 BKN048

超过4000个机场的气象观测和天气预报(METAR&TAF报告)。

可查询的气象台以黄色和红色小点在地图上表示。

将鼠标移到小点上方,可查看气象台名称。

然后点击查看天气观测和预报。

如需切换地图:点击带黑十字的绿色按钮放大地图;点击带横线的绿色按钮缩小地图;或者点击绿色箭头查看邻近地区的地图。


METAR-TAF: